Time,TemperatureF,DewpointF,PressureIn,WindDirection,WindDirectionDegrees,WindSpeedMPH,WindSpeedGustMPH,Humidity,HourlyPrecipIn,Conditions,Clouds,dailyrainin,SolarRadiationWatts/m^2,SoftwareType,DateUTC
2013-04-30 00:11:00,55.0,52.0,-100.00,WSW,239,7.0,9.0,90,-99.99,,,0.00,0.000000,,2013-04-30 07:11:00,
2013-04-30 00:21:00,55.0,52.0,-100.00,WSW,239,7.0,9.0,90,-99.99,,,0.00,0.000000,,2013-04-30 07:21:00,
2013-04-30 00:31:00,55.0,52.0,-100.00,WSW,239,7.0,9.0,90,-99.99,,,0.00,0.000000,,2013-04-30 07:31:00,
2013-04-30 00:41:00,55.0,52.0,-100.00,WSW,239,7.0,9.0,90,-99.99,,,0.00,0.000000,,2013-04-30 07:41:00,
2013-04-30 01:11:00,52.0,51.0,-100.00,West,260,8.0,13.0,96,0.00,,,0.00,0.000000,,2013-04-30 08:11:00,
2013-04-30 01:21:00,52.0,51.0,-100.00,West,260,8.0,13.0,96,0.00,,,0.00,0.000000,,2013-04-30 08:21:00,
2013-04-30 01:32:00,52.0,51.0,-100.00,West,260,8.0,13.0,96,0.00,,,0.00,0.000000,,2013-04-30 08:32:00,
2013-04-30 01:41:00,52.0,51.0,-100.00,West,260,8.0,13.0,96,0.00,,,0.00,0.000000,,2013-04-30 08:41:00,
2013-04-30 09:13:00,53.0,-99.9,-100.00,North,352,2.0,6.0,-999,-99.99,,,0.00,105.000000,,2013-04-30 16:13:00,
2013-04-30 09:23:00,53.0,-99.9,-100.00,North,352,2.0,6.0,-999,-99.99,,,0.00,105.000000,,2013-04-30 16:23:00,
2013-04-30 09:33:00,53.0,-99.9,-100.00,North,352,2.0,6.0,-999,-99.99,,,0.00,105.000000,,2013-04-30 16:33:00,
2013-04-30 09:42:00,53.0,-99.9,-100.00,North,352,2.0,6.0,-999,-99.99,,,0.00,105.000000,,2013-04-30 16:42:00,
2013-04-30 10:12:00,54.0,-99.9,-100.00,WNW,286,4.0,7.0,-999,0.00,,,0.00,255.000000,,2013-04-30 17:12:00,
2013-04-30 10:22:00,54.0,-99.9,-100.00,WNW,286,4.0,7.0,-999,0.00,,,0.00,255.000000,,2013-04-30 17:22:00,
2013-04-30 10:32:00,54.0,-99.9,-100.00,WNW,286,4.0,7.0,-999,0.00,,,0.00,255.000000,,2013-04-30 17:32:00,
2013-04-30 10:42:00,54.0,-99.9,-100.00,WNW,286,4.0,7.0,-999,0.00,,,0.00,255.000000,,2013-04-30 17:42:00,
2013-04-30 11:11:00,57.0,-99.9,-100.00,West,279,13.0,19.0,-999,0.00,,,0.00,674.000000,,2013-04-30 18:11:00,
2013-04-30 11:22:00,57.0,-99.9,-100.00,West,279,13.0,19.0,-999,0.00,,,0.00,674.000000,,2013-04-30 18:22:00,
2013-04-30 11:32:00,57.0,-99.9,-100.00,West,279,13.0,19.0,-999,0.00,,,0.00,674.000000,,2013-04-30 18:32:00,
2013-04-30 11:42:00,57.0,-99.9,-100.00,West,279,13.0,19.0,-999,0.00,,,0.00,674.000000,,2013-04-30 18:42:00,
2013-04-30 12:11:00,61.0,-99.9,-100.00,West,281,13.0,20.0,-999,0.00,,,0.00,880.000000,,2013-04-30 19:11:00,
2013-04-30 12:22:00,61.0,-99.9,-100.00,West,281,13.0,20.0,-999,0.00,,,0.00,880.000000,,2013-04-30 19:22:00,
2013-04-30 12:32:00,61.0,-99.9,-100.00,West,281,13.0,20.0,-999,0.00,,,0.00,880.000000,,2013-04-30 19:32:00,
2013-04-30 12:42:00,61.0,-99.9,-100.00,West,281,13.0,20.0,-999,0.00,,,0.00,880.000000,,2013-04-30 19:42:00,
2013-04-30 13:11:00,64.0,-99.9,-100.00,West,279,16.0,24.0,-999,0.00,,,0.00,947.000000,,2013-04-30 20:11:00,
2013-04-30 13:22:00,64.0,-99.9,-100.00,West,279,16.0,24.0,-999,0.00,,,0.00,947.000000,,2013-04-30 20:22:00,
2013-04-30 13:32:00,64.0,-99.9,-100.00,West,279,16.0,24.0,-999,0.00,,,0.00,947.000000,,2013-04-30 20:32:00,
2013-04-30 13:42:00,64.0,-99.9,-100.00,West,279,16.0,24.0,-999,0.00,,,0.00,947.000000,,2013-04-30 20:42:00,
2013-04-30 15:12:00,65.0,51.0,-100.00,West,272,19.0,27.0,60,-99.99,,,0.00,893.000000,,2013-04-30 22:12:00,
2013-04-30 15:22:00,65.0,51.0,-100.00,West,272,19.0,27.0,60,-99.99,,,0.00,893.000000,,2013-04-30 22:22:00,
2013-04-30 15:32:00,65.0,51.0,-100.00,West,272,19.0,27.0,60,-99.99,,,0.00,893.000000,,2013-04-30 22:32:00,
2013-04-30 15:41:00,65.0,51.0,-100.00,West,272,19.0,27.0,60,-99.99,,,0.00,893.000000,,2013-04-30 22:41:00,
2013-04-30 16:11:00,66.0,51.0,-100.00,WNW,284,18.0,25.0,59,0.00,,,0.00,785.000000,,2013-04-30 23:11:00,
2013-04-30 16:21:00,66.0,51.0,-100.00,WNW,284,18.0,25.0,59,0.00,,,0.00,785.000000,,2013-04-30 23:21:00,
2013-04-30 16:32:00,66.0,51.0,-100.00,WNW,284,18.0,25.0,59,0.00,,,0.00,785.000000,,2013-04-30 23:32:00,
2013-04-30 16:42:00,66.0,51.0,-100.00,WNW,284,18.0,25.0,59,0.00,,,0.00,785.000000,,2013-04-30 23:42:00,
2013-04-30 17:11:00,65.0,51.0,-100.00,West,274,14.0,26.0,60,0.00,,,0.00,625.000000,,2013-05-01 00:11:00,
2013-04-30 17:21:00,65.0,51.0,-100.00,West,274,14.0,26.0,60,0.00,,,0.00,625.000000,,2013-05-01 00:21:00,
2013-04-30 17:31:00,65.0,51.0,-100.00,West,274,14.0,26.0,60,0.00,,,0.00,625.000000,,2013-05-01 00:31:00,
2013-04-30 17:42:00,65.0,51.0,-100.00,West,274,14.0,26.0,60,0.00,,,0.00,625.000000,,2013-05-01 00:42:00,
2013-04-30 18:11:00,63.0,51.0,-100.00,West,278,12.0,21.0,65,0.00,,,0.00,417.000000,,2013-05-01 01:11:00,
2013-04-30 18:21:00,63.0,51.0,-100.00,West,278,12.0,21.0,65,0.00,,,0.00,417.000000,,2013-05-01 01:21:00,
2013-04-30 18:31:00,63.0,51.0,-100.00,West,278,12.0,21.0,65,0.00,,,0.00,417.000000,,2013-05-01 01:31:00,
2013-04-30 18:41:00,63.0,51.0,-100.00,West,278,12.0,21.0,65,0.00,,,0.00,417.000000,,2013-05-01 01:41:00,
2013-04-30 19:11:00,59.0,50.0,-100.00,West,278,12.0,19.0,73,0.00,,,-99.99,209.000000,,2013-05-01 02:11:00,
2013-04-30 19:21:00,59.0,50.0,-100.00,West,278,12.0,19.0,73,0.00,,,-99.99,209.000000,,2013-05-01 02:21:00,
2013-04-30 19:32:00,59.0,50.0,-100.00,West,278,12.0,19.0,73,0.00,,,-99.99,209.000000,,2013-05-01 02:32:00,
2013-04-30 19:42:00,59.0,50.0,-100.00,West,278,12.0,19.0,73,0.00,,,-99.99,209.000000,,2013-05-01 02:42:00,
2013-04-30 20:11:00,55.0,51.0,-100.00,West,266,8.0,16.0,86,0.00,,,-99.99,38.000000,,2013-05-01 03:11:00,
2013-04-30 20:21:00,55.0,51.0,-100.00,West,266,8.0,16.0,86,0.00,,,-99.99,38.000000,,2013-05-01 03:21:00,
2013-04-30 20:32:00,55.0,51.0,-100.00,West,266,8.0,16.0,86,0.00,,,-99.99,38.000000,,2013-05-01 03:32:00,
2013-04-30 20:42:00,55.0,51.0,-100.00,West,266,8.0,16.0,86,0.00,,,-99.99,38.000000,,2013-05-01 03:42:00,
2013-04-30 21:12:00,54.0,51.0,-100.00,West,269,3.0,9.0,89,0.00,,,-99.99,1.000000,,2013-05-01 04:12:00,
2013-04-30 21:22:00,54.0,51.0,-100.00,West,269,3.0,9.0,89,0.00,,,-99.99,1.000000,,2013-05-01 04:22:00,
2013-04-30 21:32:00,54.0,51.0,-100.00,West,269,3.0,9.0,89,0.00,,,-99.99,1.000000,,2013-05-01 04:32:00,
2013-04-30 21:42:00,54.0,51.0,-100.00,West,269,3.0,9.0,89,0.00,,,-99.99,1.000000,,2013-05-01 04:42:00,
2013-04-30 22:11:00,52.0,51.0,-100.00,WSW,240,5.0,8.0,96,0.00,,,-99.99,0.000000,,2013-05-01 05:11:00,
2013-04-30 22:21:00,52.0,51.0,-100.00,WSW,240,5.0,8.0,96,0.00,,,-99.99,0.000000,,2013-05-01 05:21:00,
2013-04-30 22:32:00,52.0,51.0,-100.00,WSW,240,5.0,8.0,96,0.00,,,-99.99,0.000000,,2013-05-01 05:32:00,
2013-04-30 22:41:00,52.0,51.0,-100.00,WSW,240,5.0,8.0,96,0.00,,,-99.99,0.000000,,2013-05-01 05:41:00,
2013-04-30 23:11:00,51.0,50.0,-100.00,WSW,245,6.0,9.0,97,0.00,,,-99.99,0.000000,,2013-05-01 06:11:00,
2013-04-30 23:22:00,51.0,50.0,-100.00,WSW,245,6.0,9.0,97,0.00,,,-99.99,0.000000,,2013-05-01 06:22:00,
2013-04-30 23:32:00,51.0,50.0,-100.00,WSW,245,6.0,9.0,97,0.00,,,-99.99,0.000000,,2013-05-01 06:32:00,
2013-04-30 23:42:00,51.0,50.0,-100.00,WSW,245,6.0,9.0,97,0.00,,,-99.99,0.000000,,2013-05-01 06:42:00,